createdAt,value
2018-07-13T00:02:07.104Z,1.73
2018-07-13T00:04:35.464Z,1.50
2018-07-13T00:07:04.050Z,1.57
2018-07-13T00:09:32.363Z,1.40
2018-07-13T00:12:00.666Z,2.07
2018-07-13T00:14:29.041Z,1.63
2018-07-13T00:16:58.453Z,1.60
2018-07-13T00:19:27.211Z,1.70
2018-07-13T00:21:55.528Z,1.70
2018-07-13T00:24:23.542Z,1.60
2018-07-13T00:26:51.904Z,2.13
2018-07-13T00:29:20.306Z,1.30
2018-07-13T00:31:48.623Z,1.60
2018-07-13T00:34:16.911Z,2.10
2018-07-13T00:36:45.057Z,2.23
2018-07-13T00:39:14.024Z,1.57
2018-07-13T00:41:42.350Z,2.00
2018-07-13T00:44:10.787Z,1.53
2018-07-13T00:46:39.097Z,2.03
2018-07-13T00:49:07.166Z,1.83
2018-07-13T00:51:35.466Z,2.37
2018-07-13T00:54:03.794Z,2.40
2018-07-13T00:56:32.106Z,2.07
2018-07-13T00:59:00.563Z,2.27
2018-07-13T01:01:28.921Z,2.00
2018-07-13T01:03:57.191Z,2.40
2018-07-13T01:06:25.480Z,2.00
2018-07-13T01:08:53.785Z,2.47
2018-07-13T01:11:22.096Z,2.13
2018-07-13T01:13:50.596Z,2.40
2018-07-13T01:16:18.908Z,1.97
2018-07-13T01:18:47.207Z,2.53
2018-07-13T01:21:15.534Z,2.30
2018-07-13T01:23:43.863Z,1.70
2018-07-13T01:26:12.305Z,2.20
2018-07-13T01:28:40.589Z,2.20
2018-07-13T01:31:08.982Z,1.80
2018-07-13T01:33:37.285Z,1.97
2018-07-13T01:36:05.739Z,1.93
2018-07-13T01:38:34.059Z,2.20
2018-07-13T01:41:03.127Z,2.13
2018-07-13T01:43:31.432Z,2.70
2018-07-13T01:45:59.778Z,2.23
2018-07-13T01:48:28.069Z,2.50
2018-07-13T01:50:56.359Z,2.20
2018-07-13T01:53:24.642Z,2.20
2018-07-13T01:55:52.939Z,2.73
2018-07-13T01:58:21.295Z,2.13
2018-07-13T02:00:49.611Z,2.43
2018-07-13T02:03:18.091Z,2.40
2018-07-13T02:05:46.402Z,2.47
2018-07-13T02:08:14.711Z,2.23
2018-07-13T02:10:43.030Z,2.40
2018-07-13T02:13:11.315Z,2.60
2018-07-13T02:15:39.615Z,2.40
2018-07-13T02:18:07.980Z,1.90
2018-07-13T02:20:36.320Z,2.43
2018-07-13T02:23:04.631Z,2.20
2018-07-13T02:25:33.028Z,2.13
2018-07-13T02:28:01.447Z,2.10
2018-07-13T02:30:29.734Z,2.13
2018-07-13T02:32:58.072Z,2.33
2018-07-13T02:35:26.369Z,1.83
2018-07-13T02:37:55.486Z,1.90
2018-07-13T02:40:23.807Z,1.87
2018-07-13T02:42:52.202Z,2.20
2018-07-13T02:45:20.540Z,1.80
2018-07-13T02:47:48.986Z,1.70
2018-07-13T02:50:17.286Z,1.80
2018-07-13T02:52:45.596Z,1.83
2018-07-13T02:55:13.938Z,1.57
2018-07-13T02:57:42.267Z,1.80
2018-07-13T03:00:10.308Z,2.00
2018-07-13T03:02:38.684Z,1.60
2018-07-13T03:05:07.264Z,1.60
2018-07-13T03:07:35.592Z,1.57
2018-07-13T03:10:04.210Z,1.90
2018-07-13T03:12:32.991Z,1.53
2018-07-13T03:15:01.330Z,1.50
2018-07-13T03:17:29.838Z,1.60
2018-07-13T03:19:58.132Z,1.93
2018-07-13T03:22:26.474Z,1.80
2018-07-13T03:24:54.825Z,1.80
2018-07-13T03:27:23.107Z,1.43
2018-07-13T03:29:51.494Z,1.83
2018-07-13T03:32:19.878Z,1.70
2018-07-13T03:34:48.338Z,1.40
2018-07-13T03:37:16.678Z,1.50
2018-07-13T03:39:45.008Z,1.63
2018-07-13T03:42:13.295Z,1.90
2018-07-13T03:44:41.648Z,2.10
2018-07-13T03:47:09.974Z,1.90
2018-07-13T03:49:38.270Z,1.43
2018-07-13T03:52:07.073Z,1.47
2018-07-13T03:54:35.679Z,1.53
2018-07-13T03:57:04.057Z,1.53
2018-07-13T03:59:32.341Z,1.30
2018-07-13T04:02:00.681Z,1.50
2018-07-13T04:04:28.997Z,1.67
2018-07-13T04:06:57.347Z,1.30
2018-07-13T04:09:25.649Z,1.70
2018-07-13T04:11:54.071Z,1.30
2018-07-13T04:14:22.339Z,1.63
2018-07-13T04:16:50.493Z,1.00
2018-07-13T04:19:18.799Z,1.50
2018-07-13T04:21:47.450Z,1.40
2018-07-13T04:24:15.733Z,1.20
2018-07-13T04:26:44.406Z,1.33
2018-07-13T04:29:13.370Z,1.30
2018-07-13T04:31:41.689Z,1.47
2018-07-13T04:34:10.051Z,1.97
2018-07-13T04:36:38.026Z,1.47
2018-07-13T04:39:09.448Z,1.53
2018-07-13T04:41:37.806Z,1.60
2018-07-13T04:44:06.649Z,1.80
2018-07-13T04:46:35.091Z,1.60
2018-07-13T04:49:03.483Z,2.27
2018-07-13T04:51:31.796Z,1.23
2018-07-13T04:54:00.131Z,1.50
2018-07-13T04:56:28.402Z,1.87
2018-07-13T04:58:56.709Z,2.90
2018-07-13T05:01:25.045Z,1.40
2018-07-13T05:03:53.331Z,1.13
2018-07-13T05:06:21.693Z,1.80
2018-07-13T05:08:49.978Z,1.37
2018-07-13T05:11:18.266Z,1.40
2018-07-13T05:13:46.594Z,1.50
2018-07-13T05:16:14.662Z,2.47
2018-07-13T05:18:42.711Z,1.73
2018-07-13T05:21:11.195Z,1.63
2018-07-13T05:23:39.583Z,1.67
2018-07-13T05:26:07.916Z,2.03
2018-07-13T05:28:36.304Z,2.00
2018-07-13T05:31:04.899Z,2.40
2018-07-13T05:33:33.425Z,2.10
2018-07-13T05:36:02.740Z,2.60
2018-07-13T05:38:31.616Z,2.60
2018-07-13T05:41:00.036Z,2.70
2018-07-13T05:43:29.373Z,2.60
2018-07-13T05:45:57.662Z,2.60
2018-07-13T05:48:26.016Z,2.67
2018-07-13T05:50:54.432Z,2.27
2018-07-13T05:53:22.727Z,2.83
2018-07-13T05:55:50.745Z,1.97
2018-07-13T05:58:19.168Z,2.10
2018-07-13T06:00:47.572Z,2.00
2018-07-13T06:03:16.507Z,2.17
2018-07-13T06:05:44.844Z,2.13
2018-07-13T06:08:13.155Z,1.97
2018-07-13T06:10:41.593Z,2.07
2018-07-13T06:13:09.927Z,1.80
2018-07-13T06:15:38.318Z,2.60
2018-07-13T06:18:06.976Z,2.13
2018-07-13T06:20:35.330Z,2.07
2018-07-13T06:23:03.705Z,1.70
2018-07-13T06:25:32.027Z,2.43
2018-07-13T06:28:00.353Z,2.20
2018-07-13T06:30:28.682Z,2.20
2018-07-13T06:32:56.994Z,1.70
2018-07-13T06:35:25.397Z,1.63
2018-07-13T06:37:53.665Z,1.40
2018-07-13T06:40:21.982Z,2.20
2018-07-13T06:42:50.303Z,1.73
2018-07-13T06:45:18.607Z,1.90
2018-07-13T06:47:47.498Z,2.20
2018-07-13T06:50:15.856Z,1.70
2018-07-13T06:52:44.219Z,1.73
2018-07-13T06:55:14.089Z,2.23
2018-07-13T06:57:53.914Z,2.50
2018-07-13T07:01:26.689Z,1.73
2018-07-13T07:04:28.171Z,2.00
2018-07-13T07:06:56.950Z,1.80
2018-07-13T07:09:26.067Z,1.97
2018-07-13T07:12:17.298Z,1.57
2018-07-13T07:14:45.677Z,2.10
2018-07-13T07:17:14.118Z,1.80
2018-07-13T07:19:42.496Z,1.80
2018-07-13T07:22:10.798Z,2.00
2018-07-13T07:24:38.830Z,1.30
2018-07-13T07:27:06.953Z,1.50
2018-07-13T07:29:35.035Z,2.13
2018-07-13T07:32:03.764Z,1.87
2018-07-13T07:34:31.815Z,2.07
2018-07-13T07:36:59.865Z,1.90
2018-07-13T07:39:27.919Z,1.93
2018-07-13T07:41:56.062Z,1.70
2018-07-13T07:44:24.226Z,2.17
2018-07-13T07:46:52.271Z,1.77
2018-07-13T07:49:20.277Z,1.70
2018-07-13T07:51:48.313Z,1.73
2018-07-13T07:54:16.605Z,1.93
2018-07-13T07:56:44.762Z,1.87
2018-07-13T07:59:12.965Z,1.80
2018-07-13T08:01:41.132Z,1.80
2018-07-13T08:04:09.505Z,2.37
2018-07-13T08:06:37.719Z,2.03
2018-07-13T08:09:06.527Z,1.97
2018-07-13T08:11:34.566Z,1.90
2018-07-13T08:14:02.846Z,1.70
2018-07-13T08:16:30.834Z,2.00
2018-07-13T08:18:59.984Z,1.97
2018-07-13T08:21:28.108Z,1.87
2018-07-13T08:23:56.134Z,2.00
2018-07-13T08:26:24.271Z,1.90
2018-07-13T08:28:52.819Z,1.93
2018-07-13T08:31:20.863Z,2.03
2018-07-13T08:33:48.863Z,1.90
2018-07-13T08:36:17.593Z,2.20
2018-07-13T08:38:45.619Z,2.20
2018-07-13T08:41:14.668Z,1.90
2018-07-13T08:43:42.880Z,2.13
2018-07-13T08:46:11.035Z,2.30
2018-07-13T08:48:39.160Z,1.93
2018-07-13T08:51:07.231Z,2.20
2018-07-13T08:53:35.320Z,2.33
2018-07-13T08:56:03.397Z,1.90
2018-07-13T08:58:31.518Z,1.80
2018-07-13T09:00:59.563Z,2.00
2018-07-13T09:03:27.637Z,2.60
2018-07-13T09:05:55.804Z,2.50
2018-07-13T09:08:24.723Z,2.40
2018-07-13T09:10:53.099Z,2.30
2018-07-13T09:13:21.119Z,2.90
2018-07-13T09:15:49.247Z,2.07
2018-07-13T09:18:17.340Z,2.87
2018-07-13T09:20:45.634Z,2.00
2018-07-13T09:23:13.675Z,2.70
2018-07-13T09:25:41.994Z,2.63
2018-07-13T09:28:10.158Z,2.23
2018-07-13T09:30:38.221Z,2.53
2018-07-13T09:33:06.363Z,2.40
2018-07-13T09:35:34.502Z,2.83
2018-07-13T09:38:02.665Z,2.80
2018-07-13T09:40:30.726Z,2.70
2018-07-13T09:42:59.113Z,2.73
2018-07-13T09:45:27.366Z,2.40
2018-07-13T09:47:55.411Z,2.43
2018-07-13T09:50:23.434Z,2.37
2018-07-13T09:52:51.484Z,3.37
2018-07-13T09:55:19.468Z,2.60
2018-07-13T09:57:47.526Z,2.57
2018-07-13T10:00:15.534Z,2.30
2018-07-13T10:02:43.566Z,2.30
2018-07-13T10:05:11.745Z,2.67
2018-07-13T10:07:40.058Z,2.80
2018-07-13T10:10:09.218Z,2.67
2018-07-13T10:12:37.239Z,2.20
2018-07-13T10:15:05.299Z,2.40
2018-07-13T10:17:33.378Z,3.00
2018-07-13T10:20:01.386Z,2.67
2018-07-13T10:22:29.410Z,2.63
2018-07-13T10:24:59.230Z,2.77
2018-07-13T10:27:29.363Z,3.03
2018-07-13T10:29:57.795Z,2.67
2018-07-13T10:32:25.852Z,2.90
2018-07-13T10:34:53.862Z,2.80
2018-07-13T10:37:21.925Z,3.10
2018-07-13T10:39:49.977Z,3.30
2018-07-13T10:42:18.079Z,3.03
2018-07-13T10:44:46.125Z,3.03
2018-07-13T10:47:14.203Z,3.00
2018-07-13T10:49:42.323Z,4.10
2018-07-13T10:52:10.425Z,3.20
2018-07-13T10:54:38.488Z,3.17
2018-07-13T10:57:06.640Z,3.40
2018-07-13T10:59:34.599Z,3.47
2018-07-13T11:02:02.631Z,3.37
2018-07-13T11:04:30.721Z,3.27
2018-07-13T11:06:58.804Z,3.70
2018-07-13T11:09:26.934Z,3.43
2018-07-13T11:11:55.078Z,3.03
2018-07-13T11:14:23.138Z,3.70
2018-07-13T11:16:51.251Z,3.30
2018-07-13T11:19:19.282Z,3.73
2018-07-13T11:21:48.363Z,3.33
2018-07-13T11:24:16.531Z,3.57
2018-07-13T11:26:44.675Z,3.23
2018-07-13T11:29:12.749Z,3.40
2018-07-13T11:31:40.887Z,2.97
2018-07-13T11:34:08.916Z,3.30
2018-07-13T11:36:37.022Z,3.40
2018-07-13T11:39:06.477Z,3.57
2018-07-13T11:41:34.482Z,3.23
2018-07-13T11:44:02.538Z,3.50
2018-07-13T11:46:30.604Z,2.97
2018-07-13T11:48:58.757Z,2.70
2018-07-13T11:51:26.805Z,3.87
2018-07-13T11:53:54.868Z,3.43
2018-07-13T11:56:23.442Z,3.30
2018-07-13T11:58:51.571Z,3.70
2018-07-13T12:01:19.743Z,3.10
2018-07-13T12:03:47.809Z,3.40
2018-07-13T12:06:15.882Z,3.10
2018-07-13T12:08:44.848Z,2.73
2018-07-13T12:11:12.898Z,2.93
2018-07-13T12:13:41.276Z,3.30
2018-07-13T12:16:09.617Z,3.13
2018-07-13T12:18:37.740Z,2.87
2018-07-13T12:21:06.646Z,3.10
2018-07-13T12:23:34.976Z,2.80
2018-07-13T12:26:03.286Z,3.23
2018-07-13T12:28:31.640Z,2.50
2018-07-13T12:30:59.978Z,2.70
2018-07-13T12:33:29.351Z,2.73
2018-07-13T12:35:57.674Z,2.70
2018-07-13T12:38:25.819Z,2.80
2018-07-13T12:40:54.176Z,2.57
2018-07-13T12:43:22.557Z,2.67
2018-07-13T12:45:50.971Z,2.13
2018-07-13T12:48:19.248Z,2.50
2018-07-13T12:50:47.580Z,2.90
2018-07-13T12:53:15.954Z,2.20
2018-07-13T12:55:44.319Z,2.53
2018-07-13T12:58:12.637Z,2.53
2018-07-13T13:00:40.958Z,2.30
2018-07-13T13:03:09.265Z,2.40
2018-07-13T13:05:37.737Z,2.43
2018-07-13T13:08:05.987Z,2.63
2018-07-13T13:10:34.031Z,2.10
2018-07-13T13:13:02.522Z,2.23
2018-07-13T13:15:30.943Z,2.43
2018-07-13T13:17:59.271Z,2.60
2018-07-13T13:20:27.681Z,2.67
2018-07-13T13:22:56.090Z,1.90
2018-07-13T13:25:24.400Z,2.20
2018-07-13T13:27:52.747Z,2.33
2018-07-13T13:30:21.037Z,2.33
2018-07-13T13:32:49.396Z,2.43
2018-07-13T13:35:17.677Z,2.43
2018-07-13T13:37:46.019Z,2.10
2018-07-13T13:40:14.046Z,2.43
2018-07-13T13:42:42.362Z,2.30
2018-07-13T13:45:10.666Z,1.80
2018-07-13T13:47:38.964Z,2.20
2018-07-13T13:50:07.356Z,2.17
2018-07-13T13:52:36.252Z,2.03
2018-07-13T13:55:04.617Z,2.10
2018-07-13T13:57:32.945Z,2.33
2018-07-13T14:00:01.810Z,2.27
2018-07-13T14:02:30.456Z,2.87
2018-07-13T14:04:59.343Z,2.30
2018-07-13T14:07:28.305Z,2.23
2018-07-13T14:09:56.830Z,2.30
2018-07-13T14:12:25.320Z,2.20
2018-07-13T14:14:53.658Z,2.03
2018-07-13T14:17:21.949Z,1.80
2018-07-13T14:19:50.242Z,2.47
2018-07-13T14:22:18.570Z,2.37
2018-07-13T14:24:47.082Z,2.50
2018-07-13T14:27:15.419Z,2.27
2018-07-13T14:29:44.369Z,2.00
2018-07-13T14:32:12.680Z,2.03
2018-07-13T14:34:41.122Z,1.73
2018-07-13T14:37:09.372Z,1.90
2018-07-13T14:39:37.393Z,1.93
2018-07-13T14:42:05.730Z,2.07
2018-07-13T14:44:34.140Z,1.90
2018-07-13T14:47:02.569Z,2.27
2018-07-13T14:49:30.855Z,2.30
2018-07-13T14:51:59.167Z,2.57
2018-07-13T14:54:27.566Z,2.00
2018-07-13T14:56:55.886Z,1.90
2018-07-13T14:59:24.036Z,2.07
2018-07-13T15:01:52.356Z,2.10
2018-07-13T15:04:20.712Z,1.90
2018-07-13T15:06:49.036Z,2.43
2018-07-13T15:09:18.015Z,1.87
2018-07-13T15:11:46.396Z,1.70
2018-07-13T15:14:14.700Z,1.77
2018-07-13T15:16:44.294Z,1.60
2018-07-13T15:19:12.670Z,2.00
2018-07-13T15:21:41.015Z,2.10
2018-07-13T15:24:09.026Z,2.17
2018-07-13T15:26:38.011Z,1.97
2018-07-13T15:29:06.721Z,1.80
2018-07-13T15:31:34.927Z,1.90
2018-07-13T15:34:03.538Z,1.63
2018-07-13T15:36:31.652Z,1.67
2018-07-13T15:38:59.970Z,1.63
2018-07-13T15:41:28.271Z,1.60
2018-07-13T15:43:57.065Z,2.10
2018-07-13T15:46:25.398Z,1.63
2018-07-13T15:48:54.403Z,1.60
2018-07-13T15:51:23.441Z,1.70
2018-07-13T15:53:53.931Z,1.70
2018-07-13T15:56:22.273Z,1.50
2018-07-13T15:58:50.743Z,1.90
2018-07-13T16:01:19.029Z,1.70
2018-07-13T16:03:47.451Z,1.50
2018-07-13T16:06:16.993Z,1.80
2018-07-13T16:08:45.881Z,1.67
2018-07-13T16:11:14.175Z,1.73
2018-07-13T16:13:42.500Z,1.63
2018-07-13T16:16:11.204Z,1.73
2018-07-13T16:18:39.527Z,1.70
2018-07-13T16:21:07.859Z,1.70
2018-07-13T16:23:36.202Z,1.53
2018-07-13T16:26:04.499Z,1.50
2018-07-13T16:28:32.690Z,2.00
2018-07-13T16:31:00.952Z,1.43
2018-07-13T16:33:29.289Z,1.63
2018-07-13T16:35:57.606Z,1.50
2018-07-13T16:38:25.657Z,1.23
2018-07-13T16:40:53.954Z,1.70
2018-07-13T16:43:22.304Z,1.33
2018-07-13T16:45:50.690Z,1.47
2018-07-13T16:48:18.983Z,1.70
2018-07-13T16:50:48.184Z,1.53
2018-07-13T16:53:16.640Z,1.73
2018-07-13T16:55:44.987Z,1.47
2018-07-13T16:58:13.427Z,1.57
2018-07-13T17:00:41.747Z,1.60
2018-07-13T17:03:10.399Z,1.63
2018-07-13T17:05:38.837Z,1.57
2018-07-13T17:08:08.855Z,1.33
2018-07-13T17:10:38.078Z,1.57
2018-07-13T17:13:06.460Z,1.77
2018-07-13T17:15:35.941Z,2.07
2018-07-13T17:18:04.411Z,2.00
2018-07-13T17:20:32.901Z,2.10
2018-07-13T17:23:01.151Z,1.80
2018-07-13T17:25:29.484Z,1.90
2018-07-13T17:27:58.798Z,1.80
2018-07-13T17:30:27.100Z,1.63
2018-07-13T17:32:56.387Z,2.90
2018-07-13T17:35:24.812Z,1.93
2018-07-13T17:37:53.122Z,1.60
2018-07-13T17:40:21.441Z,1.80
2018-07-13T17:42:49.994Z,1.97
2018-07-13T17:45:18.346Z,1.80
2018-07-13T17:47:46.812Z,1.60
2018-07-13T17:50:15.301Z,1.63
2018-07-13T17:52:43.655Z,2.00
2018-07-13T17:55:12.068Z,2.30
2018-07-13T17:57:40.369Z,2.70
2018-07-13T18:00:08.762Z,2.27
2018-07-13T18:02:37.190Z,2.97
2018-07-13T18:05:05.755Z,2.77
2018-07-13T18:07:34.298Z,2.60
2018-07-13T18:10:02.597Z,2.00
2018-07-13T18:12:31.230Z,1.77
2018-07-13T18:15:00.413Z,1.60
2018-07-13T18:17:28.735Z,1.67
2018-07-13T18:19:57.127Z,2.03
2018-07-13T18:22:26.470Z,2.00
2018-07-13T18:24:54.837Z,1.87
2018-07-13T18:27:23.216Z,1.90
2018-07-13T18:29:51.642Z,1.50
2018-07-13T18:32:19.976Z,2.40
2018-07-13T18:34:48.271Z,2.20
2018-07-13T18:37:17.172Z,2.43
2018-07-13T18:39:45.502Z,2.07
2018-07-13T18:42:13.841Z,2.27
2018-07-13T18:44:42.213Z,1.80
2018-07-13T18:47:10.971Z,1.67
2018-07-13T18:49:39.303Z,1.83
2018-07-13T18:52:08.996Z,1.60
2018-07-13T18:54:37.286Z,2.20
2018-07-13T18:57:06.446Z,3.00
2018-07-13T18:59:34.924Z,3.23
2018-07-13T19:02:03.919Z,3.83
2018-07-13T19:04:32.505Z,3.80
2018-07-13T19:07:00.819Z,2.73
2018-07-13T19:09:29.110Z,2.80
2018-07-13T19:11:57.406Z,2.80
2018-07-13T19:14:25.878Z,2.20
2018-07-13T19:16:54.191Z,2.00
2018-07-13T19:19:22.608Z,1.93
2018-07-13T19:21:50.784Z,1.93
2018-07-13T19:24:19.630Z,1.50
2018-07-13T19:26:47.979Z,1.23
2018-07-13T19:29:16.313Z,1.60
2018-07-13T19:31:44.753Z,1.30
2018-07-13T19:34:13.153Z,1.30
2018-07-13T19:36:42.609Z,1.60
2018-07-13T19:39:10.928Z,1.53
2018-07-13T19:41:39.311Z,1.57
2018-07-13T19:44:07.641Z,1.57
2018-07-13T19:46:36.010Z,1.70
2018-07-13T19:49:04.331Z,1.40
2018-07-13T19:51:32.683Z,1.60
2018-07-13T19:54:01.243Z,1.87
2018-07-13T19:56:29.305Z,2.20
2018-07-13T19:58:57.674Z,2.00
2018-07-13T20:01:26.017Z,2.37
2018-07-13T20:03:54.358Z,2.00
2018-07-13T20:06:22.808Z,2.23
2018-07-13T20:08:51.184Z,2.20
2018-07-13T20:11:19.698Z,1.70
2018-07-13T20:13:48.179Z,1.50
2018-07-13T20:16:16.836Z,1.00
2018-07-13T20:18:45.245Z,1.60
2018-07-13T20:21:13.355Z,1.77
2018-07-13T20:23:41.759Z,2.10
2018-07-13T20:26:10.129Z,1.80
2018-07-13T20:28:38.544Z,1.90
2018-07-13T20:33:41.397Z,1.60
2018-07-13T20:36:09.764Z,1.40
2018-07-13T20:38:38.077Z,1.60
2018-07-13T20:41:06.587Z,1.53
2018-07-13T20:43:34.938Z,2.07
2018-07-13T20:46:03.501Z,3.33
2018-07-13T20:48:32.132Z,4.00
2018-07-13T20:51:01.298Z,2.30
2018-07-13T20:53:29.721Z,2.70
2018-07-13T20:55:57.840Z,1.60
2018-07-13T20:58:26.816Z,1.80
2018-07-13T21:00:55.119Z,1.57
2018-07-13T21:03:23.615Z,1.90
2018-07-13T21:05:51.920Z,1.50
2018-07-13T21:08:20.271Z,1.30
2018-07-13T21:10:48.587Z,1.13
2018-07-13T21:13:16.959Z,1.43
2018-07-13T21:15:45.631Z,4.80
2018-07-13T21:18:13.730Z,2.23
2018-07-13T21:20:42.265Z,2.00
2018-07-13T21:23:10.587Z,1.77
2018-07-13T21:25:38.925Z,1.80
2018-07-13T21:28:08.633Z,1.27
2018-07-13T21:30:36.954Z,1.43
2018-07-13T21:33:05.250Z,1.20
2018-07-13T21:35:33.584Z,1.60
2018-07-13T21:38:01.974Z,1.10
2018-07-13T21:40:30.934Z,1.37
2018-07-13T21:42:59.246Z,1.37
2018-07-13T21:45:27.611Z,1.67
2018-07-13T21:47:55.963Z,1.50
2018-07-13T21:50:24.408Z,1.23
2018-07-13T21:52:52.890Z,1.37
2018-07-13T21:55:21.202Z,1.53
2018-07-13T21:57:49.631Z,1.50
2018-07-13T22:00:17.960Z,1.53
2018-07-13T22:02:46.319Z,1.50
2018-07-13T22:05:14.616Z,1.90
2018-07-13T22:07:42.962Z,1.77
2018-07-13T22:10:11.343Z,1.40
2018-07-13T22:12:39.660Z,1.50
2018-07-13T22:15:09.074Z,1.63
2018-07-13T22:17:37.562Z,1.87
2018-07-13T22:20:06.279Z,1.43
2018-07-13T22:22:34.607Z,2.10
2018-07-13T22:25:04.080Z,1.70
2018-07-13T22:27:32.410Z,1.80
2018-07-13T22:30:00.887Z,3.40
2018-07-13T22:32:28.951Z,2.30
2018-07-13T22:34:57.385Z,2.80
2018-07-13T22:37:25.725Z,2.20
2018-07-13T22:39:55.025Z,2.50
2018-07-13T22:42:23.393Z,2.33
2018-07-13T22:44:52.676Z,2.00
